sensor_id;sensor_type;location;lat;lon;timestamp;P1;durP1;ratioP1;P2;durP2;ratioP2
8327;SDS011;4201;48.754;8.864;2022-07-26T00:01:16;3.17;;;1.87;;
8327;SDS011;4201;48.754;8.864;2022-07-26T00:03:43;5.67;;;2.23;;
8327;SDS011;4201;48.754;8.864;2022-07-26T00:06:09;9.03;;;1.80;;
8327;SDS011;4201;48.754;8.864;2022-07-26T00:08:35;8.90;;;1.80;;
8327;SDS011;4201;48.754;8.864;2022-07-26T00:11:02;3.83;;;1.90;;
8327;SDS011;4201;48.754;8.864;2022-07-26T00:13:28;4.00;;;1.97;;
8327;SDS011;4201;48.754;8.864;2022-07-26T00:15:56;4.63;;;1.80;;
8327;SDS011;4201;48.754;8.864;2022-07-26T00:18:22;3.87;;;1.60;;
8327;SDS011;4201;48.754;8.864;2022-07-26T00:20:48;6.07;;;1.70;;
8327;SDS011;4201;48.754;8.864;2022-07-26T00:23:14;5.73;;;2.17;;
8327;SDS011;4201;48.754;8.864;2022-07-26T00:25:43;5.20;;;2.00;;
8327;SDS011;4201;48.754;8.864;2022-07-26T00:28:09;4.50;;;1.73;;
8327;SDS011;4201;48.754;8.864;2022-07-26T00:30:36;4.43;;;1.63;;
8327;SDS011;4201;48.754;8.864;2022-07-26T00:33:03;4.03;;;1.40;;
8327;SDS011;4201;48.754;8.864;2022-07-26T00:35:30;3.90;;;1.90;;
8327;SDS011;4201;48.754;8.864;2022-07-26T00:37:56;5.13;;;2.17;;
8327;SDS011;4201;48.754;8.864;2022-07-26T00:40:22;3.90;;;1.63;;
8327;SDS011;4201;48.754;8.864;2022-07-26T00:42:49;3.30;;;1.67;;
8327;SDS011;4201;48.754;8.864;2022-07-26T00:45:16;3.43;;;1.80;;
8327;SDS011;4201;48.754;8.864;2022-07-26T00:47:42;4.03;;;1.60;;
8327;SDS011;4201;48.754;8.864;2022-07-26T00:50:11;3.70;;;1.90;;
8327;SDS011;4201;48.754;8.864;2022-07-26T00:52:38;4.30;;;1.60;;
8327;SDS011;4201;48.754;8.864;2022-07-26T00:55:06;4.90;;;2.57;;
8327;SDS011;4201;48.754;8.864;2022-07-26T00:57:32;3.83;;;1.60;;
8327;SDS011;4201;48.754;8.864;2022-07-26T00:59:59;3.47;;;1.80;;
8327;SDS011;4201;48.754;8.864;2022-07-26T01:02:26;3.43;;;1.80;;
8327;SDS011;4201;48.754;8.864;2022-07-26T01:04:52;5.80;;;2.00;;
8327;SDS011;4201;48.754;8.864;2022-07-26T01:07:19;2.47;;;1.33;;
8327;SDS011;4201;48.754;8.864;2022-07-26T01:09:47;3.60;;;1.90;;
8327;SDS011;4201;48.754;8.864;2022-07-26T01:12:13;3.50;;;1.80;;
8327;SDS011;4201;48.754;8.864;2022-07-26T01:14:40;3.40;;;1.53;;
8327;SDS011;4201;48.754;8.864;2022-07-26T01:17:07;3.30;;;1.93;;
8327;SDS011;4201;48.754;8.864;2022-07-26T01:19:33;4.23;;;1.93;;
8327;SDS011;4201;48.754;8.864;2022-07-26T01:22:01;2.90;;;1.70;;
8327;SDS011;4201;48.754;8.864;2022-07-26T01:24:27;6.33;;;1.87;;
8327;SDS011;4201;48.754;8.864;2022-07-26T01:26:53;3.50;;;1.70;;
8327;SDS011;4201;48.754;8.864;2022-07-26T01:29:21;4.57;;;1.93;;
8327;SDS011;4201;48.754;8.864;2022-07-26T01:31:47;4.17;;;1.70;;
8327;SDS011;4201;48.754;8.864;2022-07-26T01:34:13;4.60;;;2.20;;
8327;SDS011;4201;48.754;8.864;2022-07-26T01:36:39;3.33;;;1.90;;
8327;SDS011;4201;48.754;8.864;2022-07-26T01:39:07;4.33;;;1.90;;
8327;SDS011;4201;48.754;8.864;2022-07-26T01:41:36;3.70;;;1.73;;
8327;SDS011;4201;48.754;8.864;2022-07-26T01:44:03;3.20;;;2.17;;
8327;SDS011;4201;48.754;8.864;2022-07-26T01:46:29;3.77;;;2.00;;
8327;SDS011;4201;48.754;8.864;2022-07-26T01:48:55;4.70;;;1.60;;
8327;SDS011;4201;48.754;8.864;2022-07-26T01:51:22;8.03;;;2.40;;
8327;SDS011;4201;48.754;8.864;2022-07-26T01:53:48;3.93;;;2.20;;
8327;SDS011;4201;48.754;8.864;2022-07-26T01:56:15;7.33;;;1.80;;
8327;SDS011;4201;48.754;8.864;2022-07-26T01:58:42;5.20;;;1.70;;
8327;SDS011;4201;48.754;8.864;2022-07-26T02:01:08;3.80;;;1.70;;
8327;SDS011;4201;48.754;8.864;2022-07-26T02:03:34;5.33;;;1.90;;
8327;SDS011;4201;48.754;8.864;2022-07-26T02:06:00;4.33;;;1.97;;
8327;SDS011;4201;48.754;8.864;2022-07-26T02:08:27;4.33;;;1.87;;
8327;SDS011;4201;48.754;8.864;2022-07-26T02:10:53;2.90;;;1.90;;
8327;SDS011;4201;48.754;8.864;2022-07-26T02:13:26;3.10;;;2.20;;
8327;SDS011;4201;48.754;8.864;2022-07-26T02:15:53;3.67;;;2.10;;
8327;SDS011;4201;48.754;8.864;2022-07-26T02:18:19;4.30;;;1.77;;
8327;SDS011;4201;48.754;8.864;2022-07-26T02:20:45;3.30;;;1.90;;
8327;SDS011;4201;48.754;8.864;2022-07-26T02:23:11;3.73;;;1.93;;
8327;SDS011;4201;48.754;8.864;2022-07-26T02:25:38;7.03;;;2.70;;
8327;SDS011;4201;48.754;8.864;2022-07-26T02:28:04;4.53;;;2.13;;
8327;SDS011;4201;48.754;8.864;2022-07-26T02:30:32;2.87;;;1.70;;
8327;SDS011;4201;48.754;8.864;2022-07-26T02:32:58;4.07;;;1.80;;
8327;SDS011;4201;48.754;8.864;2022-07-26T02:35:24;4.20;;;2.03;;
8327;SDS011;4201;48.754;8.864;2022-07-26T02:37:51;3.50;;;2.07;;
8327;SDS011;4201;48.754;8.864;2022-07-26T02:40:17;4.30;;;2.00;;
8327;SDS011;4201;48.754;8.864;2022-07-26T02:42:43;4.97;;;2.23;;
8327;SDS011;4201;48.754;8.864;2022-07-26T02:45:09;3.23;;;1.90;;
8327;SDS011;4201;48.754;8.864;2022-07-26T02:47:45;3.27;;;2.10;;
8327;SDS011;4201;48.754;8.864;2022-07-26T02:50:11;9.60;;;2.87;;
8327;SDS011;4201;48.754;8.864;2022-07-26T02:52:37;4.20;;;1.77;;
8327;SDS011;4201;48.754;8.864;2022-07-26T02:55:04;3.77;;;1.93;;
8327;SDS011;4201;48.754;8.864;2022-07-26T02:57:31;3.83;;;2.10;;
8327;SDS011;4201;48.754;8.864;2022-07-26T02:59:57;4.97;;;2.00;;
8327;SDS011;4201;48.754;8.864;2022-07-26T03:02:23;3.13;;;1.80;;
8327;SDS011;4201;48.754;8.864;2022-07-26T03:04:51;2.87;;;1.97;;
8327;SDS011;4201;48.754;8.864;2022-07-26T03:07:17;4.40;;;2.17;;
8327;SDS011;4201;48.754;8.864;2022-07-26T03:09:43;5.20;;;2.27;;
8327;SDS011;4201;48.754;8.864;2022-07-26T03:12:09;4.77;;;2.70;;
8327;SDS011;4201;48.754;8.864;2022-07-26T03:14:36;3.67;;;2.20;;
8327;SDS011;4201;48.754;8.864;2022-07-26T03:17:02;6.00;;;2.50;;
8327;SDS011;4201;48.754;8.864;2022-07-26T03:19:28;7.23;;;2.33;;
8327;SDS011;4201;48.754;8.864;2022-07-26T03:21:56;19.87;;;3.07;;
8327;SDS011;4201;48.754;8.864;2022-07-26T03:24:22;4.03;;;2.00;;
8327;SDS011;4201;48.754;8.864;2022-07-26T03:26:48;4.83;;;2.40;;
8327;SDS011;4201;48.754;8.864;2022-07-26T03:29:14;3.30;;;2.50;;
8327;SDS011;4201;48.754;8.864;2022-07-26T03:31:40;4.90;;;2.20;;
8327;SDS011;4201;48.754;8.864;2022-07-26T03:34:07;3.83;;;2.77;;
8327;SDS011;4201;48.754;8.864;2022-07-26T03:36:33;6.93;;;3.03;;
8327;SDS011;4201;48.754;8.864;2022-07-26T03:39:01;4.40;;;2.00;;
8327;SDS011;4201;48.754;8.864;2022-07-26T03:41:27;5.40;;;2.30;;
8327;SDS011;4201;48.754;8.864;2022-07-26T03:43:55;3.73;;;2.57;;
8327;SDS011;4201;48.754;8.864;2022-07-26T03:46:21;5.90;;;2.30;;
8327;SDS011;4201;48.754;8.864;2022-07-26T03:48:48;4.03;;;2.20;;
8327;SDS011;4201;48.754;8.864;2022-07-26T03:51:14;4.57;;;2.60;;
8327;SDS011;4201;48.754;8.864;2022-07-26T03:53:40;5.20;;;2.50;;
8327;SDS011;4201;48.754;8.864;2022-07-26T03:56:08;4.30;;;3.00;;
8327;SDS011;4201;48.754;8.864;2022-07-26T03:58:51;3.87;;;2.40;;
8327;SDS011;4201;48.754;8.864;2022-07-26T04:01:18;4.50;;;2.43;;
8327;SDS011;4201;48.754;8.864;2022-07-26T04:03:44;5.73;;;2.80;;
8327;SDS011;4201;48.754;8.864;2022-07-26T04:06:10;4.20;;;2.97;;
8327;SDS011;4201;48.754;8.864;2022-07-26T04:08:36;6.83;;;2.87;;
8327;SDS011;4201;48.754;8.864;2022-07-26T04:11:03;5.23;;;2.83;;
8327;SDS011;4201;48.754;8.864;2022-07-26T04:13:30;4.53;;;3.27;;
8327;SDS011;4201;48.754;8.864;2022-07-26T04:15:57;6.83;;;2.60;;
8327;SDS011;4201;48.754;8.864;2022-07-26T04:18:23;4.97;;;2.60;;
8327;SDS011;4201;48.754;8.864;2022-07-26T04:20:49;4.83;;;3.20;;
8327;SDS011;4201;48.754;8.864;2022-07-26T04:23:15;4.80;;;3.50;;
8327;SDS011;4201;48.754;8.864;2022-07-26T04:25:42;3.80;;;2.90;;
8327;SDS011;4201;48.754;8.864;2022-07-26T04:28:09;3.97;;;3.00;;
8327;SDS011;4201;48.754;8.864;2022-07-26T04:30:37;4.57;;;3.13;;
8327;SDS011;4201;48.754;8.864;2022-07-26T04:33:04;6.53;;;2.50;;
8327;SDS011;4201;48.754;8.864;2022-07-26T04:35:30;9.33;;;2.87;;
8327;SDS011;4201;48.754;8.864;2022-07-26T04:37:56;3.73;;;2.70;;
8327;SDS011;4201;48.754;8.864;2022-07-26T04:40:23;10.50;;;3.30;;
8327;SDS011;4201;48.754;8.864;2022-07-26T04:42:50;3.70;;;2.80;;
8327;SDS011;4201;48.754;8.864;2022-07-26T04:45:16;3.90;;;2.70;;
8327;SDS011;4201;48.754;8.864;2022-07-26T04:47:44;6.47;;;2.97;;
8327;SDS011;4201;48.754;8.864;2022-07-26T04:50:11;5.30;;;2.80;;
8327;SDS011;4201;48.754;8.864;2022-07-26T04:52:38;5.43;;;3.10;;
8327;SDS011;4201;48.754;8.864;2022-07-26T04:55:04;5.23;;;3.07;;
8327;SDS011;4201;48.754;8.864;2022-07-26T04:57:31;4.03;;;3.10;;
8327;SDS011;4201;48.754;8.864;2022-07-26T04:59:57;4.33;;;3.57;;
8327;SDS011;4201;48.754;8.864;2022-07-26T05:02:23;4.07;;;3.37;;
8327;SDS011;4201;48.754;8.864;2022-07-26T05:04:51;12.23;;;3.63;;
8327;SDS011;4201;48.754;8.864;2022-07-26T05:07:17;5.00;;;4.00;;
8327;SDS011;4201;48.754;8.864;2022-07-26T05:09:43;5.43;;;3.47;;
8327;SDS011;4201;48.754;8.864;2022-07-26T05:12:10;5.53;;;3.93;;
8327;SDS011;4201;48.754;8.864;2022-07-26T05:14:36;5.70;;;3.80;;
8327;SDS011;4201;48.754;8.864;2022-07-26T05:17:08;6.17;;;3.60;;
8327;SDS011;4201;48.754;8.864;2022-07-26T05:19:35;5.43;;;3.20;;
8327;SDS011;4201;48.754;8.864;2022-07-26T05:22:03;3.87;;;3.17;;
8327;SDS011;4201;48.754;8.864;2022-07-26T05:24:29;5.70;;;3.40;;
8327;SDS011;4201;48.754;8.864;2022-07-26T05:26:56;5.37;;;2.93;;
8327;SDS011;4201;48.754;8.864;2022-07-26T05:29:22;3.50;;;2.67;;
8327;SDS011;4201;48.754;8.864;2022-07-26T05:31:48;5.10;;;2.87;;
8327;SDS011;4201;48.754;8.864;2022-07-26T05:34:15;3.50;;;2.50;;
8327;SDS011;4201;48.754;8.864;2022-07-26T05:36:41;7.77;;;3.60;;
8327;SDS011;4201;48.754;8.864;2022-07-26T05:39:08;7.33;;;2.70;;
8327;SDS011;4201;48.754;8.864;2022-07-26T05:41:35;4.60;;;2.23;;
8327;SDS011;4201;48.754;8.864;2022-07-26T05:44:01;7.53;;;2.50;;
8327;SDS011;4201;48.754;8.864;2022-07-26T05:46:28;7.70;;;2.30;;
8327;SDS011;4201;48.754;8.864;2022-07-26T05:48:54;4.73;;;2.10;;
8327;SDS011;4201;48.754;8.864;2022-07-26T05:51:20;5.17;;;2.30;;
8327;SDS011;4201;48.754;8.864;2022-07-26T05:53:47;5.63;;;2.30;;
8327;SDS011;4201;48.754;8.864;2022-07-26T05:56:14;4.10;;;2.07;;
8327;SDS011;4201;48.754;8.864;2022-07-26T05:58:40;4.10;;;1.90;;
8327;SDS011;4201;48.754;8.864;2022-07-26T06:01:07;3.13;;;1.97;;
8327;SDS011;4201;48.754;8.864;2022-07-26T06:03:33;4.27;;;1.90;;
8327;SDS011;4201;48.754;8.864;2022-07-26T06:05:59;4.97;;;2.10;;
8327;SDS011;4201;48.754;8.864;2022-07-26T06:08:26;4.70;;;2.03;;
8327;SDS011;4201;48.754;8.864;2022-07-26T06:10:52;4.10;;;1.43;;
8327;SDS011;4201;48.754;8.864;2022-07-26T06:13:20;3.00;;;1.80;;
8327;SDS011;4201;48.754;8.864;2022-07-26T06:15:46;4.90;;;1.67;;
8327;SDS011;4201;48.754;8.864;2022-07-26T06:18:13;5.40;;;1.87;;
8327;SDS011;4201;48.754;8.864;2022-07-26T06:20:39;3.77;;;1.30;;
8327;SDS011;4201;48.754;8.864;2022-07-26T06:23:06;4.17;;;1.93;;
8327;SDS011;4201;48.754;8.864;2022-07-26T06:25:32;3.90;;;2.27;;
8327;SDS011;4201;48.754;8.864;2022-07-26T06:28:00;2.97;;;1.60;;
8327;SDS011;4201;48.754;8.864;2022-07-26T06:30:28;5.50;;;1.73;;
8327;SDS011;4201;48.754;8.864;2022-07-26T06:32:54;4.87;;;1.50;;
8327;SDS011;4201;48.754;8.864;2022-07-26T06:35:20;3.73;;;1.50;;
8327;SDS011;4201;48.754;8.864;2022-07-26T06:37:48;3.00;;;1.63;;
8327;SDS011;4201;48.754;8.864;2022-07-26T06:40:14;3.70;;;1.60;;
8327;SDS011;4201;48.754;8.864;2022-07-26T06:42:40;2.93;;;1.60;;
8327;SDS011;4201;48.754;8.864;2022-07-26T06:45:07;3.70;;;1.13;;
8327;SDS011;4201;48.754;8.864;2022-07-26T06:47:35;2.57;;;1.40;;
8327;SDS011;4201;48.754;8.864;2022-07-26T06:50:01;4.50;;;1.40;;
8327;SDS011;4201;48.754;8.864;2022-07-26T06:52:27;4.27;;;1.70;;
8327;SDS011;4201;48.754;8.864;2022-07-26T06:54:54;3.90;;;1.40;;
8327;SDS011;4201;48.754;8.864;2022-07-26T06:57:20;3.53;;;1.40;;
8327;SDS011;4201;48.754;8.864;2022-07-26T06:59:46;4.93;;;1.50;;
8327;SDS011;4201;48.754;8.864;2022-07-26T07:02:12;5.07;;;1.30;;
8327;SDS011;4201;48.754;8.864;2022-07-26T07:04:40;2.60;;;1.10;;
8327;SDS011;4201;48.754;8.864;2022-07-26T07:07:06;3.83;;;1.43;;
8327;SDS011;4201;48.754;8.864;2022-07-26T07:09:33;4.63;;;1.90;;
8327;SDS011;4201;48.754;8.864;2022-07-26T07:11:59;3.20;;;1.40;;
8327;SDS011;4201;48.754;8.864;2022-07-26T07:14:26;5.67;;;1.60;;
8327;SDS011;4201;48.754;8.864;2022-07-26T07:16:52;4.40;;;1.77;;
8327;SDS011;4201;48.754;8.864;2022-07-26T07:19:19;3.33;;;1.50;;
8327;SDS011;4201;48.754;8.864;2022-07-26T07:21:46;5.13;;;1.70;;
8327;SDS011;4201;48.754;8.864;2022-07-26T07:24:13;3.73;;;1.63;;
8327;SDS011;4201;48.754;8.864;2022-07-26T07:26:40;5.90;;;1.70;;
8327;SDS011;4201;48.754;8.864;2022-07-26T07:29:08;5.13;;;2.07;;
8327;SDS011;4201;48.754;8.864;2022-07-26T07:31:38;4.90;;;1.60;;
8327;SDS011;4201;48.754;8.864;2022-07-26T07:34:04;5.00;;;1.63;;
8327;SDS011;4201;48.754;8.864;2022-07-26T07:36:31;3.47;;;1.60;;
8327;SDS011;4201;48.754;8.864;2022-07-26T07:38:58;2.70;;;1.23;;
8327;SDS011;4201;48.754;8.864;2022-07-26T07:41:25;3.53;;;1.50;;
8327;SDS011;4201;48.754;8.864;2022-07-26T07:43:51;2.80;;;1.10;;
8327;SDS011;4201;48.754;8.864;2022-07-26T07:46:17;6.00;;;1.40;;
8327;SDS011;4201;48.754;8.864;2022-07-26T07:48:43;4.53;;;1.70;;
8327;SDS011;4201;48.754;8.864;2022-07-26T07:51:10;3.70;;;1.27;;
8327;SDS011;4201;48.754;8.864;2022-07-26T07:53:36;2.50;;;1.13;;
8327;SDS011;4201;48.754;8.864;2022-07-26T07:56:04;4.40;;;1.50;;
8327;SDS011;4201;48.754;8.864;2022-07-26T07:58:30;4.20;;;1.37;;
8327;SDS011;4201;48.754;8.864;2022-07-26T08:00:57;5.17;;;1.60;;
8327;SDS011;4201;48.754;8.864;2022-07-26T08:03:23;5.93;;;1.60;;
8327;SDS011;4201;48.754;8.864;2022-07-26T08:05:49;3.70;;;1.40;;
8327;SDS011;4201;48.754;8.864;2022-07-26T08:08:15;3.13;;;1.60;;
8327;SDS011;4201;48.754;8.864;2022-07-26T08:10:41;8.50;;;2.07;;
8327;SDS011;4201;48.754;8.864;2022-07-26T08:13:09;3.00;;;1.63;;
8327;SDS011;4201;48.754;8.864;2022-07-26T08:15:35;6.30;;;1.10;;
8327;SDS011;4201;48.754;8.864;2022-07-26T08:18:02;5.03;;;1.23;;
8327;SDS011;4201;48.754;8.864;2022-07-26T08:20:28;6.30;;;1.60;;
8327;SDS011;4201;48.754;8.864;2022-07-26T08:22:54;3.83;;;1.70;;
8327;SDS011;4201;48.754;8.864;2022-07-26T08:25:21;5.77;;;1.57;;
8327;SDS011;4201;48.754;8.864;2022-07-26T08:27:47;3.10;;;1.47;;
8327;SDS011;4201;48.754;8.864;2022-07-26T08:30:15;3.37;;;1.50;;
8327;SDS011;4201;48.754;8.864;2022-07-26T08:32:41;4.53;;;2.00;;
8327;SDS011;4201;48.754;8.864;2022-07-26T08:35:08;4.70;;;1.20;;
8327;SDS011;4201;48.754;8.864;2022-07-26T08:37:35;5.27;;;1.80;;
8327;SDS011;4201;48.754;8.864;2022-07-26T08:40:02;4.30;;;1.50;;
8327;SDS011;4201;48.754;8.864;2022-07-26T08:42:29;4.27;;;1.47;;
8327;SDS011;4201;48.754;8.864;2022-07-26T08:44:55;3.20;;;1.30;;
8327;SDS011;4201;48.754;8.864;2022-07-26T08:47:23;2.80;;;1.60;;
8327;SDS011;4201;48.754;8.864;2022-07-26T08:49:49;4.93;;;1.50;;
8327;SDS011;4201;48.754;8.864;2022-07-26T08:52:16;4.47;;;1.80;;
8327;SDS011;4201;48.754;8.864;2022-07-26T08:54:42;3.80;;;1.53;;
8327;SDS011;4201;48.754;8.864;2022-07-26T08:57:09;3.73;;;1.30;;
8327;SDS011;4201;48.754;8.864;2022-07-26T08:59:35;3.13;;;1.50;;
8327;SDS011;4201;48.754;8.864;2022-07-26T09:02:04;4.30;;;1.40;;
8327;SDS011;4201;48.754;8.864;2022-07-26T09:04:33;6.33;;;2.00;;
8327;SDS011;4201;48.754;8.864;2022-07-26T09:07:02;4.93;;;1.47;;
8327;SDS011;4201;48.754;8.864;2022-07-26T09:09:29;4.43;;;1.60;;
8327;SDS011;4201;48.754;8.864;2022-07-26T09:11:55;4.00;;;1.23;;
8327;SDS011;4201;48.754;8.864;2022-07-26T09:14:22;3.63;;;1.60;;
8327;SDS011;4201;48.754;8.864;2022-07-26T09:17:00;3.93;;;1.30;;
8327;SDS011;4201;48.754;8.864;2022-07-26T09:19:26;5.30;;;1.40;;
8327;SDS011;4201;48.754;8.864;2022-07-26T09:21:54;4.00;;;1.80;;
8327;SDS011;4201;48.754;8.864;2022-07-26T09:24:28;2.93;;;1.47;;
8327;SDS011;4201;48.754;8.864;2022-07-26T09:26:57;3.60;;;1.20;;
8327;SDS011;4201;48.754;8.864;2022-07-26T09:29:23;5.00;;;1.57;;
8327;SDS011;4201;48.754;8.864;2022-07-26T09:31:49;5.00;;;1.50;;
8327;SDS011;4201;48.754;8.864;2022-07-26T09:34:22;4.13;;;1.83;;
8327;SDS011;4201;48.754;8.864;2022-07-26T09:36:49;2.67;;;1.40;;
8327;SDS011;4201;48.754;8.864;2022-07-26T09:39:18;3.03;;;1.20;;
8327;SDS011;4201;48.754;8.864;2022-07-26T09:41:45;4.30;;;1.53;;
8327;SDS011;4201;48.754;8.864;2022-07-26T09:44:18;3.90;;;1.53;;
8327;SDS011;4201;48.754;8.864;2022-07-26T09:46:50;3.20;;;1.33;;
8327;SDS011;4201;48.754;8.864;2022-07-26T09:49:17;5.57;;;1.30;;
8327;SDS011;4201;48.754;8.864;2022-07-26T09:51:44;4.47;;;1.60;;
8327;SDS011;4201;48.754;8.864;2022-07-26T09:54:11;3.80;;;1.23;;
8327;SDS011;4201;48.754;8.864;2022-07-26T09:56:44;5.00;;;1.80;;
8327;SDS011;4201;48.754;8.864;2022-07-26T09:59:11;6.37;;;1.70;;
8327;SDS011;4201;48.754;8.864;2022-07-26T10:01:38;2.87;;;1.50;;
8327;SDS011;4201;48.754;8.864;2022-07-26T10:04:04;3.00;;;1.30;;
8327;SDS011;4201;48.754;8.864;2022-07-26T10:06:30;3.40;;;1.47;;
8327;SDS011;4201;48.754;8.864;2022-07-26T10:08:57;5.93;;;1.50;;
8327;SDS011;4201;48.754;8.864;2022-07-26T10:11:24;2.63;;;1.20;;
8327;SDS011;4201;48.754;8.864;2022-07-26T10:13:52;4.53;;;1.47;;
8327;SDS011;4201;48.754;8.864;2022-07-26T10:16:28;3.80;;;1.60;;
8327;SDS011;4201;48.754;8.864;2022-07-26T10:18:54;4.43;;;1.40;;
8327;SDS011;4201;48.754;8.864;2022-07-26T10:21:22;3.73;;;1.37;;
8327;SDS011;4201;48.754;8.864;2022-07-26T10:23:49;2.60;;;1.40;;
8327;SDS011;4201;48.754;8.864;2022-07-26T10:29:21;4.00;;;1.60;;
8327;SDS011;4201;48.754;8.864;2022-07-26T10:31:49;3.70;;;1.40;;
8327;SDS011;4201;48.754;8.864;2022-07-26T10:34:36;2.20;;;1.20;;
8327;SDS011;4201;48.754;8.864;2022-07-26T10:37:03;5.10;;;1.80;;
8327;SDS011;4201;48.754;8.864;2022-07-26T10:39:29;3.40;;;1.60;;
8327;SDS011;4201;48.754;8.864;2022-07-26T10:41:56;2.93;;;1.37;;
8327;SDS011;4201;48.754;8.864;2022-07-26T10:44:25;2.50;;;1.40;;
8327;SDS011;4201;48.754;8.864;2022-07-26T10:46:58;2.10;;;1.07;;
8327;SDS011;4201;48.754;8.864;2022-07-26T10:49:26;2.63;;;1.30;;
8327;SDS011;4201;48.754;8.864;2022-07-26T10:52:03;3.00;;;1.40;;
8327;SDS011;4201;48.754;8.864;2022-07-26T10:54:29;4.23;;;1.30;;
8327;SDS011;4201;48.754;8.864;2022-07-26T10:56:56;4.20;;;1.47;;
8327;SDS011;4201;48.754;8.864;2022-07-26T10:59:30;3.57;;;1.30;;
8327;SDS011;4201;48.754;8.864;2022-07-26T11:01:57;4.67;;;1.30;;
8327;SDS011;4201;48.754;8.864;2022-07-26T11:04:24;2.80;;;1.27;;
8327;SDS011;4201;48.754;8.864;2022-07-26T11:06:50;2.57;;;1.30;;
8327;SDS011;4201;48.754;8.864;2022-07-26T11:09:17;3.60;;;1.30;;
8327;SDS011;4201;48.754;8.864;2022-07-26T11:11:43;3.63;;;1.20;;
8327;SDS011;4201;48.754;8.864;2022-07-26T11:14:11;2.87;;;1.33;;
8327;SDS011;4201;48.754;8.864;2022-07-26T11:16:39;3.10;;;1.37;;
8327;SDS011;4201;48.754;8.864;2022-07-26T11:19:13;4.03;;;1.23;;
8327;SDS011;4201;48.754;8.864;2022-07-26T11:21:40;6.70;;;1.53;;
8327;SDS011;4201;48.754;8.864;2022-07-26T11:24:06;5.07;;;1.47;;
8327;SDS011;4201;48.754;8.864;2022-07-26T11:26:38;2.90;;;1.13;;
8327;SDS011;4201;48.754;8.864;2022-07-26T11:29:05;2.80;;;1.40;;
8327;SDS011;4201;48.754;8.864;2022-07-26T11:31:35;3.97;;;1.37;;
8327;SDS011;4201;48.754;8.864;2022-07-26T11:34:03;2.00;;;1.00;;
8327;SDS011;4201;48.754;8.864;2022-07-26T11:36:39;6.30;;;1.83;;
8327;SDS011;4201;48.754;8.864;2022-07-26T11:39:07;2.00;;;1.03;;
8327;SDS011;4201;48.754;8.864;2022-07-26T11:41:34;3.73;;;1.43;;
8327;SDS011;4201;48.754;8.864;2022-07-26T11:44:01;4.37;;;1.40;;
8327;SDS011;4201;48.754;8.864;2022-07-26T11:46:31;5.33;;;1.30;;
8327;SDS011;4201;48.754;8.864;2022-07-26T11:48:58;2.87;;;1.30;;
8327;SDS011;4201;48.754;8.864;2022-07-26T11:51:25;3.63;;;1.33;;
8327;SDS011;4201;48.754;8.864;2022-07-26T11:53:52;2.47;;;1.33;;
8327;SDS011;4201;48.754;8.864;2022-07-26T11:56:23;3.50;;;1.23;;
8327;SDS011;4201;48.754;8.864;2022-07-26T11:58:50;2.60;;;1.07;;
8327;SDS011;4201;48.754;8.864;2022-07-26T12:01:17;2.10;;;1.20;;
8327;SDS011;4201;48.754;8.864;2022-07-26T12:03:45;3.10;;;1.33;;
8327;SDS011;4201;48.754;8.864;2022-07-26T12:06:12;4.50;;;1.40;;
8327;SDS011;4201;48.754;8.864;2022-07-26T12:08:40;3.80;;;1.10;;
8327;SDS011;4201;48.754;8.864;2022-07-26T12:11:07;2.77;;;1.13;;
8327;SDS011;4201;48.754;8.864;2022-07-26T12:13:46;2.33;;;0.93;;
8327;SDS011;4201;48.754;8.864;2022-07-26T12:16:12;4.43;;;1.40;;
8327;SDS011;4201;48.754;8.864;2022-07-26T12:18:39;2.80;;;1.40;;
8327;SDS011;4201;48.754;8.864;2022-07-26T12:21:06;4.27;;;1.47;;
8327;SDS011;4201;48.754;8.864;2022-07-26T12:23:40;2.60;;;1.00;;
8327;SDS011;4201;48.754;8.864;2022-07-26T12:26:17;4.50;;;1.13;;
8327;SDS011;4201;48.754;8.864;2022-07-26T12:28:43;4.83;;;1.50;;
8327;SDS011;4201;48.754;8.864;2022-07-26T12:31:20;3.50;;;1.60;;
8327;SDS011;4201;48.754;8.864;2022-07-26T12:33:46;2.10;;;1.10;;
8327;SDS011;4201;48.754;8.864;2022-07-26T12:36:16;3.27;;;1.20;;
8327;SDS011;4201;48.754;8.864;2022-07-26T12:38:44;5.10;;;1.40;;
8327;SDS011;4201;48.754;8.864;2022-07-26T12:41:10;3.10;;;1.50;;
8327;SDS011;4201;48.754;8.864;2022-07-26T12:43:37;3.33;;;1.10;;
8327;SDS011;4201;48.754;8.864;2022-07-26T12:46:04;2.87;;;1.57;;
8327;SDS011;4201;48.754;8.864;2022-07-26T12:48:30;2.23;;;1.17;;
8327;SDS011;4201;48.754;8.864;2022-07-26T12:50:56;2.73;;;1.20;;
8327;SDS011;4201;48.754;8.864;2022-07-26T12:53:22;2.97;;;1.30;;
8327;SDS011;4201;48.754;8.864;2022-07-26T12:55:50;3.97;;;1.50;;
8327;SDS011;4201;48.754;8.864;2022-07-26T12:58:16;4.10;;;1.13;;
8327;SDS011;4201;48.754;8.864;2022-07-26T13:00:42;2.77;;;1.20;;
8327;SDS011;4201;48.754;8.864;2022-07-26T13:03:09;4.47;;;1.50;;
8327;SDS011;4201;48.754;8.864;2022-07-26T13:05:35;2.30;;;1.30;;
8327;SDS011;4201;48.754;8.864;2022-07-26T13:08:01;3.63;;;1.10;;
8327;SDS011;4201;48.754;8.864;2022-07-26T13:10:28;6.07;;;1.40;;
8327;SDS011;4201;48.754;8.864;2022-07-26T13:12:55;2.87;;;1.20;;
8327;SDS011;4201;48.754;8.864;2022-07-26T13:15:22;3.60;;;0.90;;
8327;SDS011;4201;48.754;8.864;2022-07-26T13:17:48;3.70;;;1.20;;
8327;SDS011;4201;48.754;8.864;2022-07-26T13:20:15;3.73;;;1.70;;
8327;SDS011;4201;48.754;8.864;2022-07-26T13:22:41;3.40;;;1.20;;
8327;SDS011;4201;48.754;8.864;2022-07-26T13:25:08;4.30;;;1.53;;
8327;SDS011;4201;48.754;8.864;2022-07-26T13:27:34;7.33;;;1.40;;
8327;SDS011;4201;48.754;8.864;2022-07-26T13:30:02;2.73;;;1.20;;
8327;SDS011;4201;48.754;8.864;2022-07-26T13:32:28;2.20;;;0.97;;
8327;SDS011;4201;48.754;8.864;2022-07-26T13:34:55;2.60;;;1.30;;
8327;SDS011;4201;48.754;8.864;2022-07-26T13:37:21;3.40;;;1.27;;
8327;SDS011;4201;48.754;8.864;2022-07-26T13:39:47;2.20;;;1.00;;
8327;SDS011;4201;48.754;8.864;2022-07-26T13:42:13;2.73;;;1.23;;
8327;SDS011;4201;48.754;8.864;2022-07-26T13:44:41;3.90;;;1.40;;
8327;SDS011;4201;48.754;8.864;2022-07-26T13:47:08;2.53;;;1.00;;
8327;SDS011;4201;48.754;8.864;2022-07-26T13:49:35;1.90;;;1.00;;
8327;SDS011;4201;48.754;8.864;2022-07-26T13:52:01;3.70;;;1.30;;
8327;SDS011;4201;48.754;8.864;2022-07-26T13:54:29;6.40;;;1.27;;
8327;SDS011;4201;48.754;8.864;2022-07-26T13:56:56;4.33;;;1.40;;
8327;SDS011;4201;48.754;8.864;2022-07-26T13:59:22;3.80;;;1.33;;
8327;SDS011;4201;48.754;8.864;2022-07-26T14:01:49;3.10;;;1.20;;
8327;SDS011;4201;48.754;8.864;2022-07-26T14:04:17;6.80;;;1.37;;
8327;SDS011;4201;48.754;8.864;2022-07-26T14:06:43;2.20;;;1.20;;
8327;SDS011;4201;48.754;8.864;2022-07-26T14:09:10;2.30;;;1.17;;
8327;SDS011;4201;48.754;8.864;2022-07-26T14:11:36;2.70;;;1.53;;
8327;SDS011;4201;48.754;8.864;2022-07-26T14:14:03;5.87;;;1.50;;
8327;SDS011;4201;48.754;8.864;2022-07-26T14:16:30;2.90;;;1.23;;
8327;SDS011;4201;48.754;8.864;2022-07-26T14:18:56;3.33;;;1.30;;
8327;SDS011;4201;48.754;8.864;2022-07-26T14:21:24;4.13;;;1.30;;
8327;SDS011;4201;48.754;8.864;2022-07-26T14:23:51;3.20;;;1.20;;
8327;SDS011;4201;48.754;8.864;2022-07-26T14:26:17;3.63;;;1.20;;
8327;SDS011;4201;48.754;8.864;2022-07-26T14:28:44;3.67;;;1.40;;
8327;SDS011;4201;48.754;8.864;2022-07-26T14:31:10;4.23;;;1.20;;
8327;SDS011;4201;48.754;8.864;2022-07-26T14:33:37;2.47;;;1.10;;
8327;SDS011;4201;48.754;8.864;2022-07-26T14:36:03;6.77;;;1.13;;
8327;SDS011;4201;48.754;8.864;2022-07-26T14:38:31;2.43;;;1.10;;
8327;SDS011;4201;48.754;8.864;2022-07-26T14:40:57;2.33;;;1.00;;
8327;SDS011;4201;48.754;8.864;2022-07-26T14:43:25;2.57;;;1.43;;
8327;SDS011;4201;48.754;8.864;2022-07-26T14:45:51;3.20;;;1.07;;
8327;SDS011;4201;48.754;8.864;2022-07-26T14:48:17;2.27;;;1.13;;
8327;SDS011;4201;48.754;8.864;2022-07-26T14:50:44;3.90;;;1.27;;
8327;SDS011;4201;48.754;8.864;2022-07-26T14:53:10;2.97;;;1.20;;
8327;SDS011;4201;48.754;8.864;2022-07-26T14:55:38;2.20;;;1.17;;
8327;SDS011;4201;48.754;8.864;2022-07-26T14:58:04;2.50;;;1.20;;
8327;SDS011;4201;48.754;8.864;2022-07-26T15:00:31;2.50;;;1.20;;
8327;SDS011;4201;48.754;8.864;2022-07-26T15:02:57;2.10;;;1.10;;
8327;SDS011;4201;48.754;8.864;2022-07-26T15:05:23;2.07;;;0.90;;
8327;SDS011;4201;48.754;8.864;2022-07-26T15:07:51;3.10;;;0.97;;
8327;SDS011;4201;48.754;8.864;2022-07-26T15:10:18;3.40;;;1.30;;
8327;SDS011;4201;48.754;8.864;2022-07-26T15:12:54;2.43;;;1.10;;
8327;SDS011;4201;48.754;8.864;2022-07-26T15:15:20;2.83;;;1.00;;
8327;SDS011;4201;48.754;8.864;2022-07-26T15:17:47;3.57;;;1.50;;